Time;durP1;ratioP1;P1;durP2;ratioP2;P2;SDS_P1;SDS_P2;PMS_P1;PMS_P2;Temp;Humidity;BMP_temperature;BMP_pressure;BME280_temperature;BME280_humidity;BME280_pressure;Samples;Min_cycle;Max_cycle;Signal;HPM_P1;HPM_P2
2023/06/23 00:00:20;;;;;;;15.17;14.70;;;22.50;1.00;;;;;;4865919;29;20483;-80
2023/06/23 00:02:49;;;;;;;15.20;14.80;;;22.40;1.00;;;;;;4862486;29;20866;-81
2023/06/23 00:05:17;;;;;;;15.33;14.93;;;22.40;1.00;;;;;;4863383;29;20805;-79
2023/06/23 00:07:46;;;;;;;15.10;14.70;;;22.40;1.00;;;;;;4862982;29;20599;-79
2023/06/23 00:10:14;;;;;;;15.97;15.40;;;22.30;1.00;;;;;;4860623;29;20520;-79
2023/06/23 00:12:42;;;;;;;15.87;15.33;;;22.20;99.90;;;;;;4861654;29;20626;-77
2023/06/23 00:15:14;;;;;;;16.33;15.83;;;22.20;99.90;;;;;;4862490;29;20511;-78
2023/06/23 00:17:45;;;;;;;15.53;15.13;;;22.10;99.90;;;;;;4866799;29;20767;-78
2023/06/23 00:20:14;;;;;;;15.77;15.27;;;22.10;99.90;;;;;;4864885;29;20589;-78
2023/06/23 00:22:43;;;;;;;15.90;15.40;;;22.10;99.90;;;;;;4867288;29;20475;-76
2023/06/23 00:25:12;;;;;;;15.70;15.30;;;22.00;99.90;;;;;;4866629;29;20464;-80
2023/06/23 00:27:41;;;;;;;15.50;15.10;;;21.90;99.90;;;;;;4867723;29;20472;-79
2023/06/23 00:30:11;;;;;;;16.57;16.07;;;21.90;1.00;;;;;;4865597;29;20545;-77
2023/06/23 00:32:40;;;;;;;16.27;15.77;;;21.80;1.00;;;;;;4868652;29;20491;-79
2023/06/23 00:35:10;;;;;;;16.30;15.80;;;21.90;1.00;;;;;;4865961;29;20456;-78
2023/06/23 00:37:38;;;;;;;15.83;15.33;;;21.90;1.00;;;;;;4865956;29;20814;-80
2023/06/23 00:40:10;;;;;;;15.80;15.40;;;21.90;1.00;;;;;;4862567;29;20475;-79
2023/06/23 00:42:45;;;;;;;16.17;15.57;;;21.90;29.10;;;;;;4865003;29;20472;-80
2023/06/23 00:45:14;;;;;;;15.67;15.27;;;21.90;1.00;;;;;;4867129;29;20467;-80
2023/06/23 00:47:43;;;;;;;15.83;15.43;;;21.80;1.00;;;;;;4865488;29;20456;-78
2023/06/23 00:50:16;;;;;;;16.57;15.97;;;21.70;99.90;;;;;;4863044;29;20473;-80
2023/06/23 00:52:49;;;;;;;15.70;15.27;;;21.70;24.80;;;;;;4867825;29;20512;-80
2023/06/23 00:55:19;;;;;;;15.90;15.50;;;21.70;99.90;;;;;;4863756;29;21073;-81
2023/06/23 00:57:48;;;;;;;16.33;15.93;;;21.70;1.00;;;;;;4864539;29;20475;-79
2023/06/23 01:00:19;;;;;;;16.63;16.03;;;21.70;2.90;;;;;;4860463;29;20475;-79
2023/06/23 01:05:35;;;;;;;15.67;15.27;;;21.70;1.00;;;;;;4865352;29;20466;-80
2023/06/23 01:08:16;;;;;;;15.30;14.90;;;21.70;44.10;;;;;;4865762;29;20467;-79
2023/06/23 01:10:52;;;;;;;15.83;15.33;;;21.70;99.90;;;;;;4866636;29;20471;-77
2023/06/23 01:13:28;;;;;;;16.00;15.60;;;21.70;54.20;;;;;;4869694;29;20499;-79
2023/06/23 01:16:00;;;;;;;16.40;16.00;;;21.70;95.40;;;;;;4869028;29;20474;-79
2023/06/23 01:18:36;;;;;;;17.10;16.60;;;21.60;99.90;;;;;;4869187;29;20474;-80
2023/06/23 01:21:10;;;;;;;17.27;16.70;;;21.50;99.90;;;;;;4869679;29;20474;-80
2023/06/23 01:24:04;;;;;;;17.93;17.23;;;21.40;1.00;;;;;;4870407;29;20509;-80
2023/06/23 01:26:58;;;;;;;18.17;17.50;;;21.40;1.00;;;;;;4856279;29;20478;-79
2023/06/23 01:29:30;;;;;;;17.83;17.07;;;21.30;99.90;;;;;;4863041;29;20488;-78
2023/06/23 01:32:05;;;;;;;17.60;16.90;;;21.20;99.90;;;;;;4865875;29;20481;-80
2023/06/23 01:34:41;;;;;;;18.13;17.43;;;21.20;99.90;;;;;;4868394;29;20494;-78
2023/06/23 01:37:12;;;;;;;17.27;16.67;;;21.00;99.90;;;;;;4869048;29;20467;-80
2023/06/23 01:39:44;;;;;;;17.83;17.13;;;21.00;1.00;;;;;;4869193;29;20474;-78
2023/06/23 01:42:15;;;;;;;18.43;17.63;;;21.00;99.90;;;;;;4871239;29;20457;-81
2023/06/23 01:44:48;;;;;;;18.40;17.70;;;21.00;66.30;;;;;;4868803;29;20483;-81
2023/06/23 01:47:19;;;;;;;18.33;17.63;;;21.00;1.00;;;;;;4868385;29;20467;-82
2023/06/23 01:49:49;;;;;;;18.00;17.30;;;20.80;1.00;;;;;;4868383;29;21185;-80
2023/06/23 01:52:19;;;;;;;18.37;17.57;;;20.70;1.00;;;;;;4866862;29;20463;-80
2023/06/23 01:54:50;;;;;;;19.33;18.43;;;20.80;1.00;;;;;;4869989;29;20517;-81
2023/06/23 01:57:20;;;;;;;18.40;17.70;;;20.80;1.00;;;;;;4869542;29;20475;-79
2023/06/23 01:59:51;;;;;;;18.57;17.77;;;20.80;1.00;;;;;;4866141;29;20463;-81
2023/06/23 02:02:23;;;;;;;18.70;18.00;;;20.80;1.00;;;;;;4864826;29;20902;-81
2023/06/23 02:04:52;;;;;;;16.90;16.30;;;20.70;1.00;;;;;;4869563;29;20478;-82
2023/06/23 02:07:22;;;;;;;16.40;15.60;;;20.70;1.00;;;;;;4866421;29;20501;-80
2023/06/23 02:09:52;;;;;;;16.13;15.53;;;20.70;1.00;;;;;;4866066;29;20552;-82
2023/06/23 02:12:21;;;;;;;16.20;15.60;;;20.70;99.90;;;;;;4870271;29;20941;-82
2023/06/23 02:14:51;;;;;;;15.70;15.30;;;20.70;99.90;;;;;;4869202;29;20496;-82
2023/06/23 02:17:21;;;;;;;15.90;15.37;;;20.60;1.00;;;;;;4867913;29;20500;-79
2023/06/23 02:19:52;;;;;;;15.67;15.17;;;20.60;99.90;;;;;;4863723;29;20714;-80
2023/06/23 02:22:28;;;;;;;15.80;15.30;;;20.60;99.90;;;;;;4866216;29;20660;-81
2023/06/23 02:24:57;;;;;;;16.17;15.40;;;20.60;99.90;;;;;;4859765;29;20518;-78
2023/06/23 02:27:27;;;;;;;15.20;14.80;;;20.60;99.90;;;;;;4866265;29;20837;-81
2023/06/23 02:29:58;;;;;;;15.40;14.90;;;20.60;1.00;;;;;;4865039;29;20507;-79
2023/06/23 02:32:26;;;;;;;15.23;14.83;;;20.50;1.00;;;;;;4866747;29;20462;-80
2023/06/23 02:34:55;;;;;;;15.50;15.00;;;20.60;1.00;;;;;;4863539;29;20508;-79
2023/06/23 02:37:25;;;;;;;16.10;15.60;;;20.60;99.90;;;;;;4863912;29;20469;-79
2023/06/23 02:39:58;;;;;;;15.20;14.70;;;20.60;99.90;;;;;;4862013;29;20464;-80
2023/06/23 02:42:33;;;;;;;16.00;15.50;;;20.50;1.00;;;;;;4866597;29;20997;-81
2023/06/23 02:45:08;;;;;;;15.87;15.27;;;20.50;99.90;;;;;;4863416;29;20882;-78
2023/06/23 02:47:39;;;;;;;17.03;16.50;;;20.50;99.90;;;;;;4861226;29;20459;-79
2023/06/23 02:50:12;;;;;;;16.50;15.90;;;20.50;99.90;;;;;;4861518;29;20499;-80
2023/06/23 02:52:45;;;;;;;16.53;15.93;;;20.50;99.90;;;;;;4864294;29;20528;-79
2023/06/23 02:55:17;;;;;;;17.23;16.57;;;20.40;99.90;;;;;;4867729;29;21095;-80
2023/06/23 02:57:49;;;;;;;17.13;16.43;;;20.40;99.90;;;;;;4862274;29;20471;-79
2023/06/23 03:00:22;;;;;;;17.40;16.80;;;20.40;99.90;;;;;;4862240;29;20463;-80
2023/06/23 03:02:56;;;;;;;16.73;16.13;;;20.40;99.90;;;;;;4864191;29;20910;-79
2023/06/23 03:05:26;;;;;;;16.90;16.20;;;20.50;99.90;;;;;;4862437;29;22076;-79
2023/06/23 03:07:54;;;;;;;17.07;16.47;;;20.40;99.90;;;;;;4865614;29;20466;-80
2023/06/23 03:10:23;;;;;;;17.50;16.80;;;20.40;98.10;;;;;;4864588;29;20483;-79
2023/06/23 03:12:51;;;;;;;17.90;17.20;;;20.40;97.60;;;;;;4866954;29;20464;-80
2023/06/23 03:15:20;;;;;;;17.50;16.80;;;20.40;99.90;;;;;;4863506;29;20505;-79
2023/06/23 03:17:53;;;;;;;18.50;17.60;;;20.30;82.10;;;;;;4864816;29;20461;-79
2023/06/23 03:20:26;;;;;;;18.03;17.33;;;20.30;62.30;;;;;;4862917;29;20464;-80
2023/06/23 03:22:58;;;;;;;18.47;17.60;;;20.30;68.30;;;;;;4865572;29;20556;-80
2023/06/23 03:25:28;;;;;;;18.10;17.30;;;20.40;60.70;;;;;;4861754;29;20464;-79
2023/06/23 03:27:59;;;;;;;18.20;17.50;;;20.40;43.90;;;;;;4862226;29;20486;-81
2023/06/23 03:30:35;;;;;;;18.30;17.50;;;20.40;9.40;;;;;;4863505;29;20520;-81
2023/06/23 03:33:10;;;;;;;18.07;17.37;;;20.40;21.50;;;;;;4860771;29;21068;-80
2023/06/23 03:35:42;;;;;;;18.30;17.50;;;20.50;10.40;;;;;;4863308;29;20490;-79
2023/06/23 03:38:14;;;;;;;19.43;18.63;;;20.50;1.00;;;;;;4863252;29;20542;-82
2023/06/23 03:40:47;;;;;;;19.63;18.63;;;20.40;1.00;;;;;;4864752;29;20461;-80
2023/06/23 03:43:19;;;;;;;19.27;18.30;;;20.30;1.00;;;;;;4866813;29;20574;-79
2023/06/23 03:45:53;;;;;;;19.50;18.60;;;20.30;30.30;;;;;;4860731;29;20468;-78
2023/06/23 03:48:25;;;;;;;18.60;17.80;;;20.30;5.00;;;;;;4863858;29;20663;-80
2023/06/23 03:50:56;;;;;;;18.73;17.93;;;20.30;1.00;;;;;;4861813;29;20463;-80
2023/06/23 03:53:27;;;;;;;18.70;17.80;;;20.30;1.00;;;;;;4865240;29;20499;-79
2023/06/23 03:55:57;;;;;;;19.00;18.20;;;20.40;1.00;;;;;;4860214;29;20456;-79
2023/06/23 03:58:27;;;;;;;19.50;18.60;;;20.40;1.00;;;;;;4857784;29;21029;-80
2023/06/23 04:00:58;;;;;;;19.13;18.30;;;20.40;1.00;;;;;;4862040;29;20463;-79
2023/06/23 04:03:30;;;;;;;19.00;18.17;;;20.40;1.00;;;;;;4861954;29;20513;-79
2023/06/23 04:06:00;;;;;;;19.27;18.37;;;20.30;1.00;;;;;;4863133;29;20993;-78
2023/06/23 04:08:31;;;;;;;20.40;19.40;;;20.40;2.80;;;;;;4863359;29;20470;-81
2023/06/23 04:11:00;;;;;;;19.93;18.97;;;20.40;1.00;;;;;;4860565;29;20462;-81
2023/06/23 04:13:30;;;;;;;20.67;19.67;;;20.50;1.00;;;;;;4862432;29;20997;-78
2023/06/23 04:16:03;;;;;;;20.30;19.40;;;20.40;1.00;;;;;;4863062;29;20493;-79
2023/06/23 04:18:34;;;;;;;20.70;19.50;;;20.40;1.00;;;;;;4863725;29;20975;-78
2023/06/23 04:21:05;;;;;;;20.37;19.40;;;20.40;1.00;;;;;;4861387;29;20484;-79
2023/06/23 04:23:35;;;;;;;20.37;19.37;;;20.40;1.00;;;;;;4859867;29;20508;-77
2023/06/23 04:26:05;;;;;;;20.57;19.57;;;20.40;1.00;;;;;;4858137;29;20464;-78
2023/06/23 04:28:35;;;;;;;20.70;19.70;;;20.50;1.00;;;;;;4859974;29;20840;-79
2023/06/23 04:31:08;;;;;;;21.37;20.33;;;20.50;1.00;;;;;;4861563;29;20475;-78
2023/06/23 04:33:37;;;;;;;21.40;20.37;;;20.50;1.00;;;;;;4861042;29;20570;-73
2023/06/23 04:36:11;;;;;;;22.17;21.07;;;20.50;1.00;;;;;;4863471;29;20566;-75
2023/06/23 04:38:44;;;;;;;21.90;20.60;;;20.60;1.00;;;;;;4863684;29;20825;-75
2023/06/23 04:41:17;;;;;;;22.00;20.90;;;20.60;1.00;;;;;;4858173;29;20476;-71
2023/06/23 04:43:50;;;;;;;22.80;21.30;;;20.60;1.00;;;;;;4860215;29;20471;-73
2023/06/23 04:46:25;;;;;;;21.90;20.70;;;20.60;1.00;;;;;;4860449;29;20460;-73
2023/06/23 04:48:56;;;;;;;23.43;22.00;;;20.70;1.00;;;;;;4864357;29;20456;-73
2023/06/23 04:51:29;;;;;;;22.57;21.37;;;20.70;1.00;;;;;;4861003;29;20459;-73
2023/06/23 04:54:01;;;;;;;22.30;21.00;;;20.70;1.00;;;;;;4856078;29;20607;-72
2023/06/23 04:56:34;;;;;;;23.63;22.13;;;20.70;1.00;;;;;;4855811;29;20461;-74
2023/06/23 04:59:06;;;;;;;24.13;22.83;;;20.80;1.00;;;;;;4849346;29;20468;-72
2023/06/23 05:01:37;;;;;;;24.80;23.40;;;20.80;1.00;;;;;;4857838;29;20470;-74
2023/06/23 05:04:07;;;;;;;23.10;21.60;;;20.80;1.00;;;;;;4860889;29;20478;-73
2023/06/23 05:06:37;;;;;;;23.33;22.03;;;20.80;1.00;;;;;;4862522;29;20464;-72
2023/06/23 05:09:07;;;;;;;24.17;22.87;;;20.80;1.00;;;;;;4864471;29;20558;-74
2023/06/23 05:11:36;;;;;;;24.13;22.83;;;20.80;1.00;;;;;;4863324;29;20457;-74
2023/06/23 05:14:07;;;;;;;24.40;23.00;;;20.80;1.00;;;;;;4861161;29;20483;-80
2023/06/23 05:16:43;;;;;;;24.73;23.33;;;20.80;1.00;;;;;;4853990;29;20553;-79
2023/06/23 05:19:14;;;;;;;25.10;23.50;;;20.80;1.00;;;;;;4861369;29;20458;-77
2023/06/23 05:21:45;;;;;;;26.40;24.70;;;20.70;1.00;;;;;;4862370;29;20473;-80
2023/06/23 05:24:28;;;;;;;27.40;25.70;;;20.70;1.00;;;;;;4863112;29;20485;-77
2023/06/23 05:27:07;;;;;;;26.63;24.83;;;20.70;1.00;;;;;;4864084;29;20529;-80
2023/06/23 05:29:40;;;;;;;26.73;25.03;;;20.70;1.00;;;;;;4864502;29;20473;-78
2023/06/23 05:32:14;;;;;;;27.40;25.63;;;20.60;1.00;;;;;;4863516;29;20471;-79
2023/06/23 05:34:44;;;;;;;26.50;24.90;;;20.60;1.00;;;;;;4865202;29;20937;-78
2023/06/23 05:37:13;;;;;;;28.47;26.77;;;20.60;1.00;;;;;;4865157;29;20470;-79
2023/06/23 05:39:42;;;;;;;27.13;25.47;;;20.70;1.00;;;;;;4865677;29;20474;-78
2023/06/23 05:42:10;;;;;;;29.27;27.27;;;20.90;1.00;;;;;;4867037;29;20474;-78
2023/06/23 05:44:39;;;;;;;28.43;26.53;;;20.90;1.00;;;;;;4868349;29;20479;-78
2023/06/23 05:47:12;;;;;;;30.10;27.80;;;20.70;1.00;;;;;;4866425;29;20977;-80
2023/06/23 05:49:44;;;;;;;29.63;27.53;;;20.80;1.00;;;;;;4864903;29;21075;-79
2023/06/23 05:52:19;;;;;;;29.30;27.10;;;20.80;1.00;;;;;;4864916;29;20467;-76
2023/06/23 05:54:50;;;;;;;31.23;29.07;;;20.80;1.00;;;;;;4865504;29;20495;-79
2023/06/23 05:57:23;;;;;;;30.50;28.33;;;20.80;1.00;;;;;;4868425;29;20470;-80
2023/06/23 06:00:00;;;;;;;30.37;28.30;;;20.90;1.00;;;;;;4866455;29;20869;-79
2023/06/23 06:02:34;;;;;;;30.93;28.70;;;20.80;1.00;;;;;;4866456;29;20474;-79
2023/06/23 06:05:07;;;;;;;30.47;28.37;;;20.80;1.00;;;;;;4868032;29;21031;-79
2023/06/23 06:07:37;;;;;;;29.00;26.93;;;20.70;1.00;;;;;;4864356;29;20584;-78
2023/06/23 06:10:09;;;;;;;30.13;27.87;;;20.80;1.00;;;;;;4865064;29;20453;-78
2023/06/23 06:12:39;;;;;;;29.53;27.37;;;20.80;1.00;;;;;;4866089;29;21101;-78
2023/06/23 06:15:09;;;;;;;30.80;28.57;;;20.80;1.00;;;;;;4879904;29;20492;-79
2023/06/23 06:17:40;;;;;;;29.30;26.90;;;20.90;1.00;;;;;;4868889;29;20476;-79
2023/06/23 06:20:11;;;;;;;29.23;27.03;;;20.90;1.00;;;;;;4867020;29;20489;-80
2023/06/23 06:22:42;;;;;;;29.70;27.33;;;20.90;1.00;;;;;;4865282;29;21004;-77
2023/06/23 06:25:13;;;;;;;29.67;27.37;;;20.80;1.00;;;;;;4866526;29;20472;-77
2023/06/23 06:27:44;;;;;;;28.83;26.77;;;20.90;1.00;;;;;;4865778;29;20459;-78
2023/06/23 06:30:13;;;;;;;30.80;28.50;;;20.90;99.90;;;;;;4866053;29;20545;-78
2023/06/23 06:32:44;;;;;;;29.00;26.70;;;21.00;99.90;;;;;;4867269;29;20466;-79
2023/06/23 06:35:15;;;;;;;28.43;26.30;;;21.00;99.90;;;;;;4859585;29;20463;-81
2023/06/23 06:37:47;;;;;;;29.97;27.80;;;21.00;99.90;;;;;;4863996;29;20471;-80
2023/06/23 06:40:21;;;;;;;29.40;27.30;;;21.00;99.90;;;;;;4866632;29;20541;-79
2023/06/23 06:42:50;;;;;;;28.03;26.13;;;21.00;99.90;;;;;;4862127;29;20464;-79
2023/06/23 06:45:18;;;;;;;28.50;26.50;;;21.10;99.90;;;;;;4862529;29;20790;-79
2023/06/23 06:47:49;;;;;;;28.50;26.60;;;21.00;99.90;;;;;;4864452;29;20467;-79
2023/06/23 06:50:18;;;;;;;29.63;27.33;;;21.00;99.90;;;;;;4862725;29;20830;-80
2023/06/23 06:52:48;;;;;;;27.43;25.37;;;21.10;99.90;;;;;;4862908;29;20568;-80
2023/06/23 06:55:18;;;;;;;28.77;26.57;;;21.10;99.90;;;;;;4852864;29;20475;-79
2023/06/23 06:57:46;;;;;;;28.20;26.20;;;21.10;99.90;;;;;;4858202;29;20496;-78
2023/06/23 07:00:18;;;;;;;26.83;25.10;;;21.10;99.90;;;;;;4864095;29;20553;-78
2023/06/23 07:02:48;;;;;;;26.17;24.47;;;21.10;99.90;;;;;;4865334;29;20465;-79
2023/06/23 07:05:17;;;;;;;26.20;24.27;;;21.20;99.90;;;;;;4863451;29;20598;-78
2023/06/23 07:07:46;;;;;;;26.33;24.53;;;21.40;99.90;;;;;;4866061;29;20459;-77
2023/06/23 07:10:15;;;;;;;26.23;24.53;;;21.60;99.90;;;;;;4866051;29;20487;-78
2023/06/23 07:12:43;;;;;;;26.97;25.27;;;21.70;99.90;;;;;;4867030;29;20522;-79
2023/06/23 07:15:11;;;;;;;24.57;22.90;;;21.70;99.90;;;;;;4864561;29;20495;-79
2023/06/23 07:17:40;;;;;;;26.50;24.47;;;21.80;99.90;;;;;;4867091;29;20471;-78
2023/06/23 07:20:10;;;;;;;25.47;23.97;;;21.90;99.90;;;;;;4865020;29;20539;-79
2023/06/23 07:22:38;;;;;;;26.23;24.13;;;21.80;99.90;;;;;;4866268;29;20475;-78
2023/06/23 07:25:07;;;;;;;25.60;23.77;;;21.80;99.90;;;;;;4862051;29;20621;-78
2023/06/23 07:27:35;;;;;;;25.43;23.53;;;21.80;99.90;;;;;;4876430;29;20480;-77
2023/06/23 07:30:04;;;;;;;24.00;22.40;;;21.80;99.90;;;;;;4864919;29;20474;-78
2023/06/23 07:32:32;;;;;;;24.30;22.80;;;21.90;99.90;;;;;;4864484;29;20465;-80
2023/06/23 07:35:00;;;;;;;25.63;23.87;;;21.90;99.90;;;;;;4866706;29;20845;-78
2023/06/23 07:37:30;;;;;;;25.60;24.00;;;21.80;99.90;;;;;;4868160;29;20855;-79
2023/06/23 07:39:58;;;;;;;25.37;23.63;;;21.80;99.90;;;;;;4866646;29;20460;-77
2023/06/23 07:42:27;;;;;;;23.57;21.97;;;21.80;99.90;;;;;;4863304;29;20933;-79
2023/06/23 07:44:55;;;;;;;24.77;23.17;;;21.70;99.90;;;;;;4864733;29;20502;-78
2023/06/23 07:47:23;;;;;;;24.90;23.13;;;21.70;99.90;;;;;;4866218;29;20908;-79
2023/06/23 07:49:52;;;;;;;24.07;22.23;;;21.70;99.90;;;;;;4865349;29;20467;-78
2023/06/23 07:52:20;;;;;;;23.50;22.17;;;21.70;99.90;;;;;;4862976;29;20499;-80
2023/06/23 07:54:49;;;;;;;23.73;22.17;;;21.80;99.90;;;;;;4866158;29;20499;-78
2023/06/23 07:57:19;;;;;;;25.10;23.50;;;21.80;99.90;;;;;;4862799;29;20864;-80
2023/06/23 07:59:47;;;;;;;24.57;22.87;;;21.70;99.90;;;;;;4866516;29;20488;-80
2023/06/23 08:02:16;;;;;;;25.30;23.50;;;21.80;99.90;;;;;;4865062;29;20828;-80
2023/06/23 08:04:44;;;;;;;24.93;23.13;;;21.80;99.90;;;;;;4866695;29;20885;-79
2023/06/23 08:07:13;;;;;;;23.23;21.90;;;21.90;99.90;;;;;;4861650;29;20473;-79
2023/06/23 08:09:41;;;;;;;23.20;21.70;;;21.90;99.90;;;;;;4864356;29;20470;-79
2023/06/23 08:12:11;;;;;;;24.07;22.40;;;21.90;99.90;;;;;;4865562;29;20478;-78
2023/06/23 08:14:39;;;;;;;22.00;20.60;;;22.00;99.90;;;;;;4864111;29;20494;-79
2023/06/23 08:17:07;;;;;;;21.57;20.37;;;22.00;99.90;;;;;;4865741;29;20489;-79
2023/06/23 08:19:36;;;;;;;23.53;22.20;;;22.00;99.90;;;;;;4863940;29;20456;-78
2023/06/23 08:22:04;;;;;;;21.77;20.47;;;22.00;99.90;;;;;;4865376;29;20474;-79
2023/06/23 08:24:32;;;;;;;21.57;20.27;;;22.20;99.90;;;;;;4864338;29;20571;-79
2023/06/23 08:27:01;;;;;;;22.60;21.30;;;22.20;99.90;;;;;;4863668;29;20456;-78
2023/06/23 08:29:31;;;;;;;21.70;20.50;;;22.20;99.90;;;;;;4861717;29;20459;-78
2023/06/23 08:31:59;;;;;;;20.87;19.77;;;22.30;99.90;;;;;;4864314;29;20466;-78
2023/06/23 08:34:27;;;;;;;21.17;19.97;;;22.40;99.90;;;;;;4864025;29;20476;-79
2023/06/23 08:36:55;;;;;;;20.67;19.60;;;22.50;99.90;;;;;;4864212;29;20514;-79
2023/06/23 08:39:24;;;;;;;21.30;20.10;;;22.50;99.90;;;;;;4864413;29;20505;-79
2023/06/23 08:41:54;;;;;;;20.13;19.03;;;22.50;99.90;;;;;;4867846;29;20566;-78
2023/06/23 08:44:26;;;;;;;20.50;19.30;;;22.40;99.90;;;;;;4863463;29;20476;-77
2023/06/23 08:46:58;;;;;;;20.93;19.70;;;22.50;99.90;;;;;;4866582;29;20888;-79
2023/06/23 08:49:38;;;;;;;20.33;19.13;;;22.50;99.90;;;;;;4866522;29;20552;-77
2023/06/23 08:52:07;;;;;;;21.50;19.80;;;22.60;99.90;;;;;;4869384;29;20468;-78
2023/06/23 08:54:36;;;;;;;19.87;18.77;;;22.40;99.90;;;;;;4865293;29;20492;-81
2023/06/23 08:57:06;;;;;;;20.33;19.23;;;22.40;99.90;;;;;;4866290;29;20856;-80
2023/06/23 08:59:34;;;;;;;20.57;19.50;;;22.50;99.90;;;;;;4866779;29;21013;-79
2023/06/23 09:02:05;;;;;;;20.00;18.90;;;22.40;99.90;;;;;;4867473;29;20973;-79
2023/06/23 09:04:33;;;;;;;21.90;20.70;;;22.50;99.90;;;;;;4867344;29;20499;-77
2023/06/23 09:07:01;;;;;;;19.27;18.27;;;22.60;99.90;;;;;;4867389;29;20460;-79
2023/06/23 09:09:29;;;;;;;20.50;19.30;;;22.60;99.90;;;;;;4869646;29;21007;-80
2023/06/23 09:12:01;;;;;;;21.57;20.37;;;22.50;99.90;;;;;;4867896;29;20498;-80
2023/06/23 09:14:30;;;;;;;19.90;18.90;;;22.50;99.90;;;;;;4867886;29;21051;-79
2023/06/23 09:16:59;;;;;;;18.90;18.00;;;22.60;99.90;;;;;;4865923;29;20494;-80
2023/06/23 09:19:32;;;;;;;19.33;18.33;;;22.80;99.90;;;;;;4868185;29;20459;-79
2023/06/23 09:22:00;;;;;;;19.53;18.10;;;22.80;99.90;;;;;;4867516;29;20473;-79
2023/06/23 09:24:39;;;;;;;19.27;18.17;;;22.80;99.90;;;;;;4868382;29;20471;-79
2023/06/23 09:27:08;;;;;;;20.33;19.23;;;22.80;99.90;;;;;;4867119;29;20448;-80
2023/06/23 09:29:37;;;;;;;19.13;18.30;;;22.80;99.90;;;;;;4866781;29;21060;-79
2023/06/23 09:32:08;;;;;;;19.50;18.60;;;23.00;99.90;;;;;;4868761;29;20495;-79
2023/06/23 09:34:39;;;;;;;19.77;18.77;;;23.00;99.90;;;;;;4867391;29;20586;-80
2023/06/23 09:37:08;;;;;;;19.80;18.90;;;23.00;99.90;;;;;;4863820;29;20541;-78
2023/06/23 09:39:37;;;;;;;20.50;19.40;;;23.20;99.90;;;;;;4868575;29;20452;-79
2023/06/23 09:42:08;;;;;;;19.67;18.67;;;23.20;99.90;;;;;;4864633;29;20470;-78
2023/06/23 09:44:39;;;;;;;20.60;19.40;;;23.10;99.90;;;;;;4867484;29;20484;-79
2023/06/23 09:47:08;;;;;;;19.50;18.50;;;23.00;99.90;;;;;;4867197;29;20451;-80
2023/06/23 09:49:41;;;;;;;19.17;18.17;;;22.90;99.90;;;;;;4866242;29;20500;-79
2023/06/23 09:52:13;;;;;;;18.17;17.40;;;22.90;99.90;;;;;;4864108;29;20463;-77
2023/06/23 09:54:42;;;;;;;20.00;19.10;;;23.10;99.90;;;;;;4866064;29;20514;-79
2023/06/23 09:57:15;;;;;;;20.90;19.80;;;23.10;99.90;;;;;;4866496;29;21056;-80
2023/06/23 09:59:45;;;;;;;20.67;19.60;;;22.90;99.90;;;;;;4866261;29;20465;-78
2023/06/23 10:02:21;;;;;;;19.27;18.17;;;22.90;99.90;;;;;;4866476;29;20471;-78
2023/06/23 10:04:52;;;;;;;20.60;19.37;;;23.00;99.90;;;;;;4866269;29;20502;-78
2023/06/23 10:07:22;;;;;;;19.80;18.90;;;22.90;99.90;;;;;;4863645;29;20475;-78
2023/06/23 10:09:52;;;;;;;19.30;18.20;;;22.90;99.90;;;;;;4864344;29;20462;-77
2023/06/23 10:12:40;;;;;;;20.23;19.23;;;23.00;99.90;;;;;;4867290;29;20468;-79
2023/06/23 10:15:10;;;;;;;20.80;19.60;;;23.20;99.90;;;;;;4865929;29;20483;-79
2023/06/23 10:17:39;;;;;;;20.03;18.93;;;23.10;99.90;;;;;;4863700;29;20567;-80
2023/06/23 10:20:09;;;;;;;19.07;18.27;;;23.10;99.90;;;;;;4867714;29;20464;-79
2023/06/23 10:22:39;;;;;;;18.83;17.80;;;23.20;99.90;;;;;;4863808;29;20494;-79
2023/06/23 10:25:10;;;;;;;19.53;18.63;;;23.20;99.90;;;;;;4866227;29;20476;-78
2023/06/23 10:27:41;;;;;;;18.30;17.40;;;23.30;99.90;;;;;;4864941;29;20845;-78
2023/06/23 10:30:14;;;;;;;18.00;17.10;;;23.30;99.90;;;;;;4863730;29;20957;-78
2023/06/23 10:32:47;;;;;;;18.40;17.60;;;23.50;99.90;;;;;;4866314;29;20459;-79
2023/06/23 10:35:20;;;;;;;18.93;18.07;;;23.60;99.90;;;;;;4865934;29;20508;-79
2023/06/23 10:37:50;;;;;;;18.80;17.90;;;23.70;99.90;;;;;;4868356;29;20485;-78
2023/06/23 10:40:24;;;;;;;19.10;18.20;;;23.60;99.90;;;;;;4867199;29;20475;-79
2023/06/23 10:42:54;;;;;;;18.43;17.57;;;23.70;99.90;;;;;;4862613;29;20576;-77
2023/06/23 10:45:22;;;;;;;18.30;17.50;;;23.70;99.90;;;;;;4863328;29;20464;-79
2023/06/23 10:47:50;;;;;;;18.57;17.77;;;23.70;99.90;;;;;;4864250;29;20460;-79
2023/06/23 10:50:21;;;;;;;18.70;17.90;;;23.70;99.90;;;;;;4865270;29;20519;-78
2023/06/23 10:52:49;;;;;;;19.17;18.00;;;23.70;99.90;;;;;;4865657;29;20460;-78
2023/06/23 10:55:35;;;;;;;16.77;16.17;;;23.80;99.90;;;;;;4866485;29;20484;-79
2023/06/23 10:58:12;;;;;;;18.13;17.03;;;23.80;99.90;;;;;;4864016;29;20567;-80
2023/06/23 11:00:44;;;;;;;17.90;17.30;;;24.00;99.90;;;;;;4867533;29;20558;-79
2023/06/23 11:03:27;;;;;;;18.20;17.30;;;24.00;99.90;;;;;;4866894;29;20480;-78
2023/06/23 11:05:57;;;;;;;18.53;17.63;;;24.10;99.90;;;;;;4868303;29;20470;-79
2023/06/23 11:08:32;;;;;;;17.73;16.93;;;24.10;99.90;;;;;;4864310;29;20861;-78
2023/06/23 11:11:05;;;;;;;17.63;16.70;;;24.10;99.90;;;;;;4861703;29;20460;-79
2023/06/23 11:13:59;;;;;;;18.00;17.00;;;24.20;99.90;;;;;;4863159;29;21125;-79
2023/06/23 11:16:30;;;;;;;16.83;16.13;;;24.10;99.90;;;;;;4865723;29;20456;-79
2023/06/23 11:18:59;;;;;;;17.27;16.60;;;24.00;99.90;;;;;;4868011;29;20497;-80
2023/06/23 11:21:38;;;;;;;16.10;15.50;;;24.10;99.90;;;;;;4866398;29;20542;-79
2023/06/23 11:24:14;;;;;;;17.10;16.27;;;24.10;99.90;;;;;;4866328;29;20502;-81
2023/06/23 11:26:51;;;;;;;17.00;16.30;;;24.10;99.90;;;;;;4867475;29;20477;-80
2023/06/23 11:29:21;;;;;;;16.03;15.53;;;24.20;99.90;;;;;;4864786;29;20510;-78
2023/06/23 11:32:28;;;;;;;17.60;16.80;;;24.10;99.90;;;;;;4866072;29;20494;-79
2023/06/23 11:34:57;;;;;;;17.23;16.53;;;24.20;99.90;;;;;;4866075;29;20602;-79
2023/06/23 11:37:30;;;;;;;16.70;15.90;;;24.20;99.90;;;;;;4865268;29;20487;-78
2023/06/23 11:40:00;;;;;;;17.17;16.47;;;24.10;99.90;;;;;;4867678;29;21010;-80
2023/06/23 11:42:29;;;;;;;17.03;16.40;;;24.00;99.90;;;;;;4866116;29;20504;-81
2023/06/23 11:44:58;;;;;;;16.20;15.50;;;23.80;99.90;;;;;;4865806;29;20491;-79
2023/06/23 11:47:26;;;;;;;17.20;16.60;;;23.80;99.90;;;;;;4866028;29;21100;-79
2023/06/23 11:50:03;;;;;;;17.73;17.03;;;23.70;99.90;;;;;;4867852;29;20447;-79
2023/06/23 11:52:42;;;;;;;17.70;17.00;;;23.60;99.90;;;;;;4867843;29;20489;-79
2023/06/23 11:55:19;;;;;;;17.17;16.43;;;23.60;99.90;;;;;;4865743;29;20487;-78
2023/06/23 11:57:48;;;;;;;18.03;17.23;;;23.60;99.90;;;;;;4882086;29;20459;-80
2023/06/23 12:00:24;;;;;;;17.10;16.50;;;23.60;99.90;;;;;;4863407;29;20484;-79
2023/06/23 12:03:30;;;;;;;18.20;16.77;;;23.70;99.90;;;;;;4863065;29;20463;-78
2023/06/23 12:11:00;;;;;;;17.17;16.17;;;24.10;99.90;;;;;;4809742;29;20470;-79
2023/06/23 12:13:39;;;;;;;16.10;15.40;;;24.20;99.90;;;;;;4805002;29;20552;-79
2023/06/23 12:16:08;;;;;;;17.20;16.37;;;24.20;99.90;;;;;;4806775;29;20458;-79
2023/06/23 12:18:43;;;;;;;16.40;15.63;;;24.20;99.90;;;;;;4863413;29;21056;-80
2023/06/23 12:21:12;;;;;;;16.50;15.77;;;24.10;99.90;;;;;;4851957;29;20841;-81
2023/06/23 12:23:46;;;;;;;16.70;16.10;;;24.10;99.90;;;;;;4859749;29;20877;-80
2023/06/23 12:26:14;;;;;;;16.93;16.23;;;24.10;99.90;;;;;;4859221;29;20470;-79
2023/06/23 12:28:44;;;;;;;18.13;17.40;;;24.10;99.90;;;;;;4863910;29;20464;-79
2023/06/23 12:31:12;;;;;;;17.67;16.97;;;24.10;99.90;;;;;;4859962;29;20452;-79
2023/06/23 12:33:41;;;;;;;17.67;16.93;;;24.10;99.90;;;;;;4862142;29;20488;-80
2023/06/23 12:36:15;;;;;;;16.10;15.50;;;24.20;99.90;;;;;;4861338;29;20475;-77
2023/06/23 12:38:56;;;;;;;17.03;16.20;;;24.10;99.90;;;;;;4863682;29;21055;-80
2023/06/23 12:41:27;;;;;;;16.73;16.13;;;24.20;99.90;;;;;;4860610;29;20456;-77
2023/06/23 12:43:59;;;;;;;16.40;15.80;;;24.30;99.90;;;;;;4857086;29;20574;-78
2023/06/23 12:46:28;;;;;;;15.33;14.83;;;24.40;99.90;;;;;;4869348;29;20479;-78
2023/06/23 12:48:56;;;;;;;15.40;14.90;;;24.40;99.90;;;;;;4872233;29;20540;-79
2023/06/23 12:51:34;;;;;;;16.30;15.40;;;24.40;99.90;;;;;;4857242;29;20936;-79
2023/06/23 12:54:03;;;;;;;16.63;15.83;;;24.50;99.90;;;;;;4857761;29;20526;-77
2023/06/23 12:56:41;;;;;;;15.60;15.00;;;24.50;99.90;;;;;;4856590;29;20589;-78
2023/06/23 12:59:10;;;;;;;15.87;15.07;;;24.50;99.90;;;;;;4857172;29;20483;-79